createdAt,value
2022-09-20T00:02:31.189Z,3.08
2022-09-20T00:05:17.622Z,3.10
2022-09-20T00:08:05.275Z,3.40
2022-09-20T00:10:51.593Z,3.13
2022-09-20T00:13:39.009Z,3.38
2022-09-20T00:16:27.927Z,3.38
2022-09-20T00:19:20.008Z,3.15
2022-09-20T00:22:05.479Z,3.03
2022-09-20T00:24:51.559Z,3.00
2022-09-20T00:27:37.201Z,2.90
2022-09-20T00:30:23.509Z,2.97
2022-09-20T00:33:09.872Z,3.20
2022-09-20T00:35:55.827Z,3.03
2022-09-20T00:38:41.557Z,3.50
2022-09-20T00:41:29.193Z,3.47
2022-09-20T00:44:56.827Z,3.50
2022-09-20T00:47:45.117Z,3.13
2022-09-20T00:50:53.286Z,3.30
2022-09-20T00:53:44.187Z,2.97
2022-09-20T00:56:34.633Z,3.25
2022-09-20T00:59:27.167Z,2.95
2022-09-20T01:02:26.822Z,2.97
2022-09-20T01:05:13.955Z,3.03
2022-09-20T01:07:59.737Z,3.50
2022-09-20T01:10:45.443Z,2.78
2022-09-20T01:13:31.291Z,2.72
2022-09-20T01:16:18.764Z,2.88
2022-09-20T01:19:18.796Z,3.08
2022-09-20T01:22:15.936Z,2.72
2022-09-20T01:25:16.925Z,2.80
2022-09-20T01:28:02.639Z,3.15
2022-09-20T01:31:25.442Z,3.15
2022-09-20T01:34:21.365Z,3.20
2022-09-20T01:37:14.652Z,2.80
2022-09-20T01:40:13.200Z,3.15
2022-09-20T01:43:25.983Z,3.17
2022-09-20T01:46:28.522Z,2.92
2022-09-20T01:49:28.765Z,3.33
2022-09-20T01:52:45.848Z,3.13
2022-09-20T01:55:43.980Z,2.90
2022-09-20T01:59:22.535Z,2.88
2022-09-20T02:02:39.318Z,2.92
2022-09-20T02:05:46.367Z,2.83
2022-09-20T02:08:49.602Z,2.90
2022-09-20T02:11:46.262Z,2.92
2022-09-20T02:14:53.079Z,3.00
2022-09-20T02:18:17.308Z,3.05
2022-09-20T02:24:26.759Z,3.70
2022-09-20T02:27:31.133Z,3.67
2022-09-20T02:30:44.802Z,3.55
2022-09-20T02:33:57.492Z,3.78
2022-09-20T02:37:03.972Z,3.90
2022-09-20T02:40:40.295Z,3.85
2022-09-20T02:43:54.069Z,3.42
2022-09-20T02:47:12.731Z,3.58
2022-09-20T02:50:13.795Z,4.45
2022-09-20T02:53:21.660Z,3.97
2022-09-20T02:56:25.187Z,4.05
2022-09-20T02:59:38.659Z,4.70
2022-09-20T03:02:44.076Z,5.35
2022-09-20T03:05:44.879Z,4.22
2022-09-20T03:08:43.028Z,4.43
2022-09-20T03:11:38.445Z,4.68
2022-09-20T03:14:36.693Z,3.80
2022-09-20T03:17:42.514Z,4.00
2022-09-20T03:20:35.969Z,3.80
2022-09-20T03:23:47.673Z,4.00
2022-09-20T03:26:58.780Z,3.90
2022-09-20T03:29:59.696Z,3.53
2022-09-20T03:33:07.026Z,3.92
2022-09-20T03:36:28.203Z,3.78
2022-09-20T03:39:45.490Z,3.78
2022-09-20T03:42:31.221Z,4.00
2022-09-20T03:45:42.882Z,4.13
2022-09-20T03:48:41.851Z,4.45
2022-09-20T03:51:45.612Z,4.03
2022-09-20T03:57:46.067Z,3.65
2022-09-20T04:00:53.497Z,4.15
2022-09-20T04:03:56.123Z,4.00
2022-09-20T04:07:00.659Z,3.72
2022-09-20T04:10:05.115Z,3.90
2022-09-20T04:13:16.517Z,3.85
2022-09-20T04:16:32.465Z,4.20
2022-09-20T04:19:32.778Z,3.50
2022-09-20T04:22:22.571Z,3.70
2022-09-20T04:25:29.668Z,3.13
2022-09-20T04:28:22.744Z,4.35
2022-09-20T04:31:37.462Z,4.13
2022-09-20T04:34:50.948Z,3.63
2022-09-20T04:37:39.637Z,4.27
2022-09-20T04:40:44.502Z,4.43
2022-09-20T04:43:56.719Z,4.43
2022-09-20T04:47:00.800Z,4.03
2022-09-20T04:50:19.219Z,4.00
2022-09-20T04:53:15.269Z,4.57
2022-09-20T04:56:08.296Z,4.00
2022-09-20T04:59:10.381Z,4.05
2022-09-20T05:02:22.030Z,4.78
2022-09-20T05:05:26.926Z,4.00
2022-09-20T05:08:23.223Z,4.65
2022-09-20T05:11:30.492Z,3.88
2022-09-20T05:14:26.973Z,3.88
2022-09-20T05:17:38.239Z,4.47
2022-09-20T05:20:59.524Z,4.28
2022-09-20T05:24:26.357Z,4.43
2022-09-20T05:27:42.383Z,4.22
2022-09-20T05:30:40.808Z,4.18
2022-09-20T05:33:38.482Z,4.25
2022-09-20T05:36:40.785Z,4.20
2022-09-20T05:39:37.344Z,4.28
2022-09-20T05:42:33.232Z,4.78
2022-09-20T05:45:47.136Z,4.05
2022-09-20T05:49:03.363Z,4.57
2022-09-20T05:52:07.103Z,3.78
2022-09-20T05:55:04.974Z,4.32
2022-09-20T05:58:25.016Z,4.32
2022-09-20T06:01:41.333Z,3.20
2022-09-20T06:04:39.105Z,3.55
2022-09-20T06:08:03.817Z,4.25
2022-09-20T06:11:14.210Z,3.88
2022-09-20T06:14:03.639Z,3.40
2022-09-20T06:16:55.349Z,2.83
2022-09-20T06:19:50.091Z,3.78
2022-09-20T06:22:43.869Z,3.85
2022-09-20T06:25:42.850Z,3.90
2022-09-20T06:28:45.824Z,3.85
2022-09-20T06:31:33.829Z,4.00
2022-09-20T06:34:19.579Z,4.30
2022-09-20T06:37:28.368Z,4.95
2022-09-20T06:40:50.971Z,3.67
2022-09-20T06:43:38.050Z,4.00
2022-09-20T06:46:23.626Z,4.65
2022-09-20T06:49:09.706Z,4.43
2022-09-20T06:51:55.854Z,3.90
2022-09-20T06:54:45.855Z,4.18
2022-09-20T06:57:36.450Z,3.67
2022-09-20T07:00:21.951Z,3.95
2022-09-20T07:03:07.692Z,3.55
2022-09-20T07:05:53.821Z,3.70
2022-09-20T07:08:41.592Z,3.67
2022-09-20T07:11:27.821Z,3.60
2022-09-20T07:14:13.527Z,3.70
2022-09-20T07:16:58.953Z,3.88
2022-09-20T07:19:44.700Z,3.78
2022-09-20T07:22:30.801Z,4.05
2022-09-20T07:25:18.191Z,3.95
2022-09-20T07:28:04.186Z,3.97
2022-09-20T07:30:50.047Z,4.10
2022-09-20T07:33:35.803Z,3.42
2022-09-20T07:36:21.520Z,4.00
2022-09-20T07:39:07.368Z,3.75
2022-09-20T07:41:53.149Z,3.47
2022-09-20T07:44:39.164Z,3.58
2022-09-20T07:47:25.457Z,3.70
2022-09-20T07:50:11.676Z,3.80
2022-09-20T07:52:58.001Z,3.53
2022-09-20T07:55:43.908Z,3.50
2022-09-20T07:58:31.005Z,3.00
2022-09-20T08:01:16.599Z,2.25
2022-09-20T08:04:04.583Z,3.30
2022-09-20T08:06:50.522Z,3.38
2022-09-20T08:09:36.124Z,3.28
2022-09-20T08:15:29.297Z,3.38
2022-09-20T08:18:17.547Z,2.90
2022-09-20T08:21:06.245Z,3.33
2022-09-20T08:23:51.925Z,3.72
2022-09-20T08:26:37.426Z,2.92
2022-09-20T08:29:23.282Z,3.40
2022-09-20T08:32:09.211Z,3.40
2022-09-20T08:34:55.142Z,3.67
2022-09-20T08:37:43.683Z,3.38
2022-09-20T08:40:30.796Z,3.80
2022-09-20T08:43:22.256Z,3.20
2022-09-20T08:46:14.812Z,3.28
2022-09-20T08:49:03.255Z,3.58
2022-09-20T08:51:50.693Z,3.38
2022-09-20T08:54:36.264Z,3.55
2022-09-20T08:57:22.016Z,3.75
2022-09-20T09:00:16.066Z,3.97
2022-09-20T09:03:10.703Z,3.72
2022-09-20T09:05:58.333Z,3.33
2022-09-20T09:08:47.385Z,3.63
2022-09-20T09:11:34.446Z,3.95
2022-09-20T09:14:47.973Z,3.88
2022-09-20T09:17:33.496Z,3.85
2022-09-20T09:20:23.267Z,3.78
2022-09-20T09:23:19.569Z,4.03
2022-09-20T09:26:05.687Z,3.83
2022-09-20T09:29:17.953Z,4.15
2022-09-20T09:32:21.939Z,3.90
2022-09-20T09:35:23.492Z,4.15
2022-09-20T09:38:18.610Z,4.10
2022-09-20T09:41:08.571Z,3.58
2022-09-20T09:44:01.525Z,4.32
2022-09-20T09:46:50.128Z,3.80
2022-09-20T09:49:36.087Z,4.50
2022-09-20T09:52:27.975Z,4.95
2022-09-20T09:55:14.421Z,4.95
2022-09-20T09:58:26.319Z,4.10
2022-09-20T10:01:34.189Z,4.45
2022-09-20T10:04:44.935Z,4.20
2022-09-20T10:07:46.696Z,4.38
2022-09-20T10:10:56.251Z,4.43
2022-09-20T10:14:26.894Z,4.90
2022-09-20T10:18:00.991Z,4.47
2022-09-20T10:21:06.662Z,4.90
2022-09-20T10:24:03.349Z,4.65
2022-09-20T10:27:28.689Z,4.05
2022-09-20T10:30:23.671Z,4.22
2022-09-20T10:33:32.585Z,4.13
2022-09-20T10:36:29.256Z,4.05
2022-09-20T10:39:27.076Z,4.40
2022-09-20T10:43:12.804Z,4.78
2022-09-20T10:46:30.391Z,4.72
2022-09-20T10:49:33.725Z,4.07
2022-09-20T10:53:01.450Z,4.82
2022-09-20T10:56:05.285Z,4.32
2022-09-20T10:59:06.783Z,4.60
2022-09-20T11:02:13.194Z,4.10
2022-09-20T11:05:26.145Z,3.85
2022-09-20T11:08:22.889Z,3.30
2022-09-20T11:11:23.002Z,3.90
2022-09-20T11:14:19.349Z,3.00
2022-09-20T11:17:18.801Z,3.75
2022-09-20T11:20:17.003Z,3.72
2022-09-20T11:23:12.385Z,4.13
2022-09-20T11:26:07.363Z,3.28
2022-09-20T11:29:01.556Z,2.97
2022-09-20T11:31:50.552Z,3.30
2022-09-20T11:34:49.100Z,2.80
2022-09-20T11:37:57.352Z,4.00
2022-09-20T11:41:08.494Z,3.03
2022-09-20T11:43:57.556Z,3.35
2022-09-20T11:47:08.343Z,2.65
2022-09-20T11:50:21.712Z,2.70
2022-09-20T11:53:28.326Z,2.90
2022-09-20T11:56:35.299Z,2.20
2022-09-20T11:59:42.204Z,2.67
2022-09-20T12:02:53.182Z,2.97
2022-09-20T12:05:41.637Z,2.83
2022-09-20T12:08:41.719Z,2.30
2022-09-20T12:11:34.141Z,2.78
2022-09-20T12:14:24.335Z,2.10
2022-09-20T12:17:44.418Z,2.53
2022-09-20T12:20:32.978Z,2.72
2022-09-20T12:23:40.585Z,2.55
2022-09-20T12:26:26.603Z,1.98
2022-09-20T12:29:24.432Z,2.20
2022-09-20T12:32:43.849Z,2.72
2022-09-20T12:35:44.734Z,2.40
2022-09-20T12:38:34.699Z,2.13
2022-09-20T12:41:28.318Z,2.40
2022-09-20T12:44:35.278Z,2.15
2022-09-20T12:47:27.860Z,2.60
2022-09-20T12:50:33.711Z,3.15
2022-09-20T12:53:20.761Z,2.38
2022-09-20T12:56:27.975Z,2.40
2022-09-20T12:59:27.889Z,2.75
2022-09-20T13:03:02.463Z,1.50
2022-09-20T13:06:05.727Z,1.60
2022-09-20T13:09:09.052Z,1.33
2022-09-20T13:11:56.924Z,1.30
2022-09-20T13:14:44.268Z,1.40
2022-09-20T13:17:31.417Z,1.77
2022-09-20T13:20:22.801Z,1.25
2022-09-20T13:23:22.228Z,1.10
2022-09-20T13:26:13.756Z,1.60
2022-09-20T13:29:25.078Z,0.85
2022-09-20T13:32:26.287Z,1.27
2022-09-20T13:35:32.350Z,1.10
2022-09-20T13:38:22.660Z,1.40
2022-09-20T13:41:13.028Z,1.48
2022-09-20T13:43:58.785Z,1.50
2022-09-20T13:46:45.783Z,1.38
2022-09-20T13:49:32.755Z,1.20
2022-09-20T13:52:27.177Z,1.38
2022-09-20T13:55:30.792Z,1.70
2022-09-20T13:58:27.824Z,1.92
2022-09-20T14:01:32.784Z,1.08
2022-09-20T14:04:27.826Z,1.27
2022-09-20T14:07:15.112Z,1.45
2022-09-20T14:10:01.019Z,1.23
2022-09-20T14:12:49.133Z,1.10
2022-09-20T14:15:38.638Z,1.10
2022-09-20T14:18:24.566Z,1.60
2022-09-20T14:21:11.845Z,1.55
2022-09-20T14:24:06.548Z,1.42
2022-09-20T14:27:03.721Z,1.70
2022-09-20T14:29:54.020Z,1.23
2022-09-20T14:33:00.773Z,1.25
2022-09-20T14:35:50.984Z,1.30
2022-09-20T14:38:37.008Z,1.60
2022-09-20T14:41:46.922Z,1.33
2022-09-20T14:44:42.992Z,1.15
2022-09-20T14:47:37.079Z,1.10
2022-09-20T14:50:31.487Z,1.20
2022-09-20T14:53:26.847Z,1.50
2022-09-20T14:56:17.838Z,1.30
2022-09-20T14:59:06.917Z,1.45
2022-09-20T15:02:04.343Z,1.60
2022-09-20T15:04:56.315Z,1.50
2022-09-20T15:07:42.079Z,1.75
2022-09-20T15:10:27.870Z,1.40
2022-09-20T15:13:13.795Z,1.00
2022-09-20T15:15:59.489Z,1.10
2022-09-20T15:18:45.318Z,1.40
2022-09-20T15:21:31.260Z,1.30
2022-09-20T15:24:18.788Z,1.63
2022-09-20T15:27:05.110Z,1.25
2022-09-20T15:29:52.017Z,1.17
2022-09-20T15:32:38.048Z,1.50
2022-09-20T15:35:23.453Z,1.50
2022-09-20T15:38:11.650Z,1.95
2022-09-20T15:41:00.959Z,1.25
2022-09-20T15:43:50.266Z,1.35
2022-09-20T15:46:36.036Z,1.65
2022-09-20T15:49:22.246Z,1.58
2022-09-20T15:52:07.786Z,1.38
2022-09-20T15:54:54.010Z,1.58
2022-09-20T15:57:41.361Z,1.30
2022-09-20T16:00:26.722Z,1.30
2022-09-20T16:03:13.006Z,1.40
2022-09-20T16:06:04.063Z,1.50
2022-09-20T16:08:51.261Z,1.13
2022-09-20T16:11:37.509Z,1.38
2022-09-20T16:14:23.169Z,1.40
2022-09-20T16:17:10.019Z,1.58
2022-09-20T16:19:55.790Z,1.10
2022-09-20T16:22:41.725Z,1.33
2022-09-20T16:25:27.856Z,1.60
2022-09-20T16:28:14.528Z,0.98
2022-09-20T16:31:00.735Z,1.50
2022-09-20T16:33:46.416Z,1.30
2022-09-20T16:36:33.033Z,1.33
2022-09-20T16:39:19.982Z,1.38
2022-09-20T16:42:07.557Z,1.25
2022-09-20T16:44:53.044Z,1.17
2022-09-20T16:47:41.161Z,1.40
2022-09-20T16:50:26.664Z,1.40
2022-09-20T16:53:12.189Z,1.40
2022-09-20T16:55:57.951Z,1.55
2022-09-20T16:58:44.465Z,1.90
2022-09-20T17:01:31.525Z,1.40
2022-09-20T17:04:19.022Z,1.58
2022-09-20T17:07:05.368Z,1.85
2022-09-20T17:09:50.868Z,1.80
2022-09-20T17:12:41.920Z,1.80
2022-09-20T17:15:27.394Z,1.52
2022-09-20T17:18:15.683Z,1.63
2022-09-20T17:21:06.637Z,1.50
2022-09-20T17:24:00.277Z,1.35
2022-09-20T17:26:46.589Z,1.70
2022-09-20T17:29:32.677Z,1.50
2022-09-20T17:32:19.300Z,1.42
2022-09-20T17:35:05.573Z,1.50
2022-09-20T17:37:51.730Z,1.42
2022-09-20T17:40:37.187Z,1.50
2022-09-20T17:43:23.204Z,1.50
2022-09-20T17:46:12.096Z,1.70
2022-09-20T17:49:02.438Z,2.00
2022-09-20T17:51:53.459Z,1.63
2022-09-20T17:54:40.157Z,1.83
2022-09-20T17:57:26.055Z,1.77
2022-09-20T18:00:12.106Z,1.48
2022-09-20T18:03:00.498Z,1.90
2022-09-20T18:05:50.576Z,1.70
2022-09-20T18:08:36.220Z,1.80
2022-09-20T18:11:26.643Z,1.85
2022-09-20T18:14:13.324Z,1.52
2022-09-20T18:17:01.451Z,1.90
2022-09-20T18:19:47.739Z,2.13
2022-09-20T18:22:33.664Z,2.47
2022-09-20T18:25:19.632Z,2.15
2022-09-20T18:28:05.461Z,2.03
2022-09-20T18:31:04.410Z,2.10
2022-09-20T18:33:55.228Z,2.20
2022-09-20T18:36:41.482Z,1.70
2022-09-20T18:39:29.308Z,1.95
2022-09-20T18:42:15.286Z,2.10
2022-09-20T18:45:00.845Z,2.30
2022-09-20T18:47:47.018Z,1.92
2022-09-20T18:50:34.660Z,2.28
2022-09-20T18:53:20.290Z,2.20
2022-09-20T18:56:14.237Z,2.60
2022-09-20T18:59:01.664Z,2.10
2022-09-20T19:01:50.507Z,1.83
2022-09-20T19:05:01.457Z,2.40
2022-09-20T19:08:17.588Z,2.20
2022-09-20T19:11:10.753Z,1.98
2022-09-20T19:14:14.848Z,2.28
2022-09-20T19:17:04.601Z,2.72
2022-09-20T19:19:56.189Z,2.40
2022-09-20T19:23:07.993Z,2.45
2022-09-20T19:26:20.828Z,2.75
2022-09-20T19:29:21.755Z,4.50
2022-09-20T19:32:17.227Z,6.03
2022-09-20T19:35:03.960Z,5.82
2022-09-20T19:38:15.564Z,6.72
2022-09-20T19:41:08.828Z,6.82
2022-09-20T19:44:25.094Z,7.40
2022-09-20T19:47:46.586Z,8.85
2022-09-20T19:50:46.269Z,8.50
2022-09-20T19:53:32.348Z,8.35
2022-09-20T19:56:21.633Z,7.78
2022-09-20T19:59:09.290Z,8.35
2022-09-20T20:01:56.572Z,7.78
2022-09-20T20:04:43.633Z,8.63
2022-09-20T20:07:39.804Z,8.95
2022-09-20T20:10:28.914Z,9.32
2022-09-20T20:14:02.361Z,9.10
2022-09-20T20:17:21.974Z,8.55
2022-09-20T20:20:33.875Z,10.13
2022-09-20T20:23:39.606Z,9.18
2022-09-20T20:26:26.075Z,9.40
2022-09-20T20:29:12.233Z,9.73
2022-09-20T20:31:57.948Z,9.60
2022-09-20T20:34:44.272Z,9.10
2022-09-20T20:37:32.062Z,8.80
2022-09-20T20:40:18.694Z,9.02
2022-09-20T20:43:06.171Z,8.25
2022-09-20T20:45:51.950Z,7.78
2022-09-20T20:48:37.765Z,6.32
2022-09-20T20:51:23.676Z,5.00
2022-09-20T20:54:10.383Z,3.50
2022-09-20T20:56:55.984Z,3.20
2022-09-20T20:59:41.838Z,3.20
2022-09-20T21:02:27.200Z,2.85
2022-09-20T21:05:15.173Z,2.35
2022-09-20T21:08:01.193Z,2.40
2022-09-20T21:10:46.733Z,2.30
2022-09-20T21:13:33.010Z,2.00
2022-09-20T21:16:24.341Z,2.00
2022-09-20T21:19:14.949Z,2.03
2022-09-20T21:22:00.528Z,2.72
2022-09-20T21:24:47.068Z,2.10
2022-09-20T21:27:36.099Z,3.00
2022-09-20T21:30:21.584Z,5.22
2022-09-20T21:33:07.089Z,4.95
2022-09-20T21:35:57.663Z,4.75
2022-09-20T21:38:44.652Z,4.10
2022-09-20T21:41:32.483Z,6.78
2022-09-20T21:44:20.513Z,5.97
2022-09-20T21:47:06.300Z,5.80
2022-09-20T21:49:51.946Z,4.97
2022-09-20T21:52:38.947Z,3.60
2022-09-20T21:55:24.709Z,2.70
2022-09-20T21:58:10.734Z,2.20
2022-09-20T22:01:06.140Z,2.97
2022-09-20T22:03:56.508Z,3.58
2022-09-20T22:06:43.828Z,3.65
2022-09-20T22:09:29.436Z,4.05
2022-09-20T22:12:15.159Z,3.88
2022-09-20T22:15:00.693Z,2.70
2022-09-20T22:17:46.112Z,2.67
2022-09-20T22:20:31.558Z,2.60
2022-09-20T22:23:17.496Z,2.40
2022-09-20T22:26:12.894Z,2.17
2022-09-20T22:28:58.815Z,1.98
2022-09-20T22:31:46.688Z,2.20
2022-09-20T22:34:33.079Z,2.00
2022-09-20T22:37:18.578Z,2.20
2022-09-20T22:40:04.740Z,2.35
2022-09-20T22:42:50.955Z,1.92
2022-09-20T22:45:36.584Z,2.05
2022-09-20T22:48:22.507Z,1.52
2022-09-20T22:51:13.865Z,1.80
2022-09-20T22:54:00.080Z,2.75
2022-09-20T22:56:45.648Z,4.82
2022-09-20T22:59:31.385Z,5.47
2022-09-20T23:02:17.336Z,4.28
2022-09-20T23:05:02.908Z,4.35
2022-09-20T23:07:49.092Z,5.00
2022-09-20T23:10:37.177Z,4.65
2022-09-20T23:13:23.129Z,4.35
2022-09-20T23:16:18.630Z,3.78
2022-09-20T23:19:06.286Z,3.15
2022-09-20T23:21:52.130Z,2.17
2022-09-20T23:24:37.542Z,2.08
2022-09-20T23:27:24.514Z,3.55
2022-09-20T23:30:10.764Z,2.95
2022-09-20T23:32:56.445Z,3.38
2022-09-20T23:35:45.547Z,2.97
2022-09-20T23:38:31.132Z,2.45
2022-09-20T23:41:20.365Z,3.03
2022-09-20T23:44:07.444Z,3.58
2022-09-20T23:46:53.369Z,4.38
2022-09-20T23:49:38.765Z,3.70
2022-09-20T23:52:24.219Z,4.60
2022-09-20T23:55:09.808Z,4.40
2022-09-20T23:57:59.424Z,4.65
